Time;durP1;ratioP1;P1;durP2;ratioP2;P2;SDS_P1;SDS_P2;PMS_P1;PMS_P2;Temp;Humidity;BMP_temperature;BMP_pressure;BME280_temperature;BME280_humidity;BME280_pressure;Samples;Min_cycle;Max_cycle;Signal;HPM_P1;HPM_P2
2022/12/06 00:00:17;;;;;;;3.03;1.20;;;;;;;17.98;36.23;101955.63;16117447;19;132507;-39
2022/12/06 00:05:39;;;;;;;1.70;1.00;;;;;;;17.94;36.63;101965.47;16115244;19;129384;-40
2022/12/06 00:11:17;;;;;;;2.03;0.98;;;;;;;17.94;36.24;101965.47;16118363;19;131319;-40
2022/12/06 00:16:39;;;;;;;1.92;1.13;;;;;;;17.85;36.35;101962.91;16118178;19;129696;-39
2022/12/06 00:22:01;;;;;;;2.00;1.13;;;;;;;17.81;36.44;101977.38;16117195;19;130227;-39
2022/12/06 00:27:23;;;;;;;2.35;1.17;;;;;;;17.78;36.63;101973.16;16117484;19;129295;-38
2022/12/06 00:32:44;;;;;;;2.03;1.20;;;;;;;17.74;36.20;101974.63;16114449;19;130726;-42
2022/12/06 00:38:06;;;;;;;3.28;1.27;;;;;;;17.72;36.59;101973.16;16119052;19;129807;-41
2022/12/06 00:43:30;;;;;;;1.00;0.80;;;;;;;17.68;36.57;101970.81;16123742;19;129656;-41
2022/12/06 00:48:53;;;;;;;1.73;1.05;;;;;;;17.65;36.32;101971.25;16132369;19;132371;-39
2022/12/06 00:54:15;;;;;;;1.67;0.90;;;;;;;17.62;36.58;101956.97;16131839;19;130470;-39
2022/12/06 00:59:37;;;;;;;0.82;0.77;;;;;;;17.62;36.24;101962.50;16129293;19;130428;-45
2022/12/06 01:04:59;;;;;;;2.28;0.90;;;;;;;17.57;36.49;101949.31;16129141;19;130961;-39
2022/12/06 01:10:21;;;;;;;0.93;0.80;;;;;;;17.56;36.64;101960.59;16128169;19;129796;-39
2022/12/06 01:15:43;;;;;;;0.90;0.80;;;;;;;17.53;36.59;101951.63;16127856;19;129646;-39
2022/12/06 01:21:07;;;;;;;1.88;0.90;;;;;;;17.51;36.22;101956.53;16127384;19;129272;-40
2022/12/06 01:26:31;;;;;;;0.98;0.70;;;;;;;17.49;36.16;101958.66;16129759;19;129894;-41
2022/12/06 01:31:53;;;;;;;1.02;0.73;;;;;;;17.46;36.29;101975.69;16129504;19;129617;-40
2022/12/06 01:37:15;;;;;;;2.67;0.70;;;;;;;17.45;36.47;101968.47;16126717;19;129454;-46
2022/12/06 01:42:36;;;;;;;1.10;0.55;;;;;;;17.43;36.58;101969.72;16129411;19;131628;-48
2022/12/06 01:47:58;;;;;;;1.90;0.57;;;;;;;17.40;36.39;101965.47;16125252;19;130208;-46
2022/12/06 01:53:22;;;;;;;1.20;0.60;;;;;;;17.38;36.48;101962.94;16122635;19;129803;-49
2022/12/06 01:58:49;;;;;;;0.45;0.40;;;;;;;17.37;36.38;101957.59;16123219;19;129232;-41
2022/12/06 02:04:12;;;;;;;0.70;0.60;;;;;;;17.34;36.21;101958.03;16124416;19;129747;-44
2022/12/06 02:09:34;;;;;;;0.40;0.40;;;;;;;17.31;36.52;101953.75;16125703;19;130898;-48
2022/12/06 02:14:58;;;;;;;0.50;0.50;;;;;;;17.30;36.65;101943.75;16135219;19;129486;-40
2022/12/06 02:20:54;;;;;;;0.50;0.35;;;;;;;17.30;36.49;101937.38;16139417;19;129114;-41
2022/12/06 02:26:24;;;;;;;0.70;0.50;;;;;;;17.28;36.30;101932.09;16139165;19;129338;-39
2022/12/06 02:31:57;;;;;;;0.50;0.50;;;;;;;17.26;36.29;101931.44;16135502;19;129209;-44
2022/12/06 02:37:27;;;;;;;0.88;0.65;;;;;;;17.23;36.59;101940.16;16123184;19;129952;-49
2022/12/06 02:42:58;;;;;;;0.60;0.60;;;;;;;17.22;36.28;101943.97;16125557;19;129406;-39
2022/12/06 02:48:23;;;;;;;0.50;0.40;;;;;;;17.20;36.64;101937.81;16122486;19;129568;-39
2022/12/06 02:53:50;;;;;;;0.80;0.57;;;;;;;17.19;36.15;101941.63;16123880;19;129504;-39
2022/12/06 02:59:11;;;;;;;1.05;0.50;;;;;;;17.16;36.62;101942.91;16123347;19;133825;-39
2022/12/06 03:04:33;;;;;;;0.60;0.50;;;;;;;17.15;36.15;101935.69;16120931;19;129269;-40
2022/12/06 03:10:24;;;;;;;0.50;0.50;;;;;;;17.15;36.22;101945.91;16121129;19;130178;-40
2022/12/06 03:15:54;;;;;;;1.42;0.60;;;;;;;17.12;36.65;101947.16;16119348;19;130794;-39
2022/12/06 03:21:22;;;;;;;0.98;0.68;;;;;;;17.10;36.37;101948.44;16119281;19;130251;-39
2022/12/06 03:26:47;;;;;;;1.15;0.55;;;;;;;17.08;36.34;101945.88;16121451;19;129558;-38
2022/12/06 03:32:12;;;;;;;1.00;0.90;;;;;;;17.06;36.38;101948.84;16118722;19;129385;-39
2022/12/06 03:37:36;;;;;;;1.38;0.70;;;;;;;17.05;36.28;101951.84;16119496;19;129595;-38
2022/12/06 03:42:59;;;;;;;1.13;0.50;;;;;;;17.03;36.22;101953.94;16120770;19;130077;-40
2022/12/06 03:48:28;;;;;;;1.65;0.70;;;;;;;17.04;36.41;101952.91;16120009;19;129687;-42
2022/12/06 03:53:52;;;;;;;1.70;0.70;;;;;;;17.01;36.31;101945.00;16119847;19;129557;-39
2022/12/06 03:59:14;;;;;;;1.27;0.50;;;;;;;17.00;36.19;101948.84;16118883;19;129392;-40
2022/12/06 04:04:36;;;;;;;0.80;0.60;;;;;;;16.99;36.32;101947.13;16118273;19;130063;-39
2022/12/06 04:10:03;;;;;;;0.70;0.45;;;;;;;16.98;36.17;101951.81;16117528;19;129760;-41
2022/12/06 04:15:31;;;;;;;0.93;0.60;;;;;;;16.96;36.47;101947.56;16113120;19;129513;-44
2022/12/06 04:26:41;;;;;;;0.70;0.60;;;;;;;16.92;36.37;101945.22;16132398;19;129613;-40
2022/12/06 04:43:41;;;;;;;0.82;0.60;;;;;;;16.87;36.34;101947.75;16127664;19;129821;-46
2022/12/06 04:49:04;;;;;;;0.82;0.63;;;;;;;16.86;36.33;101948.81;16131888;19;129465;-39
2022/12/06 04:54:25;;;;;;;2.55;0.73;;;;;;;16.86;36.16;101939.69;16128370;19;129746;-39
2022/12/06 04:59:49;;;;;;;1.70;0.70;;;;;;;16.84;36.24;101937.13;16130908;19;129395;-42
2022/12/06 05:05:11;;;;;;;1.00;0.63;;;;;;;16.84;36.38;101939.03;16128133;19;129447;-41
2022/12/06 05:10:33;;;;;;;1.45;0.73;;;;;;;16.84;36.07;101930.75;16130340;19;129833;-39
2022/12/06 05:16:00;;;;;;;0.88;0.60;;;;;;;16.83;36.07;101929.03;16127274;19;130788;-40
2022/12/06 05:21:23;;;;;;;3.50;0.77;;;;;;;16.80;36.20;101933.06;16126466;19;129600;-40
2022/12/06 05:26:45;;;;;;;3.25;0.88;;;;;;;16.79;36.39;101925.84;16128331;19;129328;-40
2022/12/06 05:32:07;;;;;;;2.53;0.70;;;;;;;16.79;36.16;101925.84;16125155;19;130091;-39
2022/12/06 05:37:28;;;;;;;1.15;0.85;;;;;;;16.77;36.19;101922.44;16127316;19;129521;-46
2022/12/06 05:42:50;;;;;;;1.90;0.80;;;;;;;16.77;36.03;101930.72;16130192;19;129433;-39
2022/12/06 05:48:12;;;;;;;1.52;0.70;;;;;;;16.75;36.06;101932.84;16128992;19;135553;-41
2022/12/06 05:53:33;;;;;;;1.60;0.70;;;;;;;16.75;36.19;101932.84;16128738;19;129824;-41
2022/12/06 05:58:55;;;;;;;1.30;0.85;;;;;;;16.74;36.03;101933.91;16126045;19;131441;-41
2022/12/06 06:04:17;;;;;;;1.73;0.60;;;;;;;16.73;36.01;101935.81;16125741;19;130926;-41
2022/12/06 06:09:38;;;;;;;1.58;0.90;;;;;;;16.74;36.03;101940.28;16125730;19;129865;-39
2022/12/06 06:15:00;;;;;;;1.30;0.63;;;;;;;16.74;36.37;101944.94;16114664;19;129962;-38
2022/12/06 06:20:22;;;;;;;1.33;0.70;;;;;;;16.74;36.10;101934.75;16112720;19;130417;-39
2022/12/06 06:25:44;;;;;;;1.55;0.70;;;;;;;16.74;36.19;101940.28;16113018;19;129793;-41
2022/12/06 06:31:06;;;;;;;1.05;0.73;;;;;;;16.75;36.08;101935.59;16116782;19;129370;-43
2022/12/06 06:36:28;;;;;;;1.48;0.70;;;;;;;16.75;36.06;101932.84;16117793;19;129145;-44
2022/12/06 06:41:50;;;;;;;2.03;0.68;;;;;;;16.75;36.45;101930.06;16116196;19;129591;-38
2022/12/06 06:47:11;;;;;;;1.85;0.90;;;;;;;16.73;36.42;101929.47;16118683;19;129914;-40
2022/12/06 06:52:33;;;;;;;2.90;1.00;;;;;;;16.72;36.30;101930.53;16121769;19;129684;-40
2022/12/06 06:57:55;;;;;;;6.25;1.08;;;;;;;16.71;36.01;101928.81;16117882;19;129464;-41
2022/12/06 07:03:19;;;;;;;2.55;0.98;;;;;;;16.70;36.13;101924.34;16122817;19;134154;-42
2022/12/06 07:08:41;;;;;;;2.45;0.93;;;;;;;16.69;36.11;101934.53;16122808;19;129543;-40
2022/12/06 07:14:03;;;;;;;1.95;0.85;;;;;;;16.69;36.14;101941.97;16120328;19;129649;-40
2022/12/06 07:19:24;;;;;;;1.27;0.80;;;;;;;16.68;36.42;101934.75;16119881;19;129774;-39
2022/12/06 07:24:46;;;;;;;4.18;0.90;;;;;;;16.67;36.34;101938.56;16122565;19;129819;-40
2022/12/06 07:30:13;;;;;;;2.13;0.80;;;;;;;16.67;36.59;101933.03;16120236;19;129297;-42
2022/12/06 07:35:38;;;;;;;;;;;;;;;16.62;36.44;101948.28;16121080;19;129567;-40
2022/12/06 07:47:02;;;;;;;1.00;0.60;;;;;;;16.62;36.32;101945.53;16119419;19;130133;-42
2022/12/06 07:52:24;;;;;;;2.33;0.60;;;;;;;16.61;36.32;101943.84;16115195;19;129961;-41
2022/12/06 07:57:46;;;;;;;2.47;0.77;;;;;;;16.63;36.63;101950.00;16118454;19;129413;-41
2022/12/06 08:03:07;;;;;;;4.18;0.82;;;;;;;16.63;36.39;101958.28;16118534;19;129484;-40
2022/12/06 08:08:30;;;;;;;3.05;0.80;;;;;;;16.63;36.62;101960.22;16122332;19;130214;-41
2022/12/06 08:13:52;;;;;;;2.38;1.00;;;;;;;16.63;36.33;101965.75;16117560;19;129591;-39
2022/12/06 08:19:14;;;;;;;2.05;0.90;;;;;;;16.63;36.78;101963.81;16117937;19;129570;-39
2022/12/06 08:24:35;;;;;;;5.82;0.80;;;;;;;16.63;36.64;101972.09;16117869;19;128971;-40
2022/12/06 08:29:57;;;;;;;4.45;1.00;;;;;;;16.62;36.41;101970.41;16118185;19;131498;-39
2022/12/06 08:35:20;;;;;;;2.22;1.13;;;;;;;16.62;36.47;101973.16;16114270;19;129656;-39
2022/12/06 08:40:42;;;;;;;2.63;0.73;;;;;;;16.62;36.19;101980.59;16115663;19;129445;-40
2022/12/06 08:46:04;;;;;;;3.00;0.77;;;;;;;16.61;36.25;101982.53;16111676;19;129516;-40
2022/12/06 08:51:27;;;;;;;1.35;0.80;;;;;;;16.62;36.59;101989.72;16112196;19;129280;-39
2022/12/06 08:56:50;;;;;;;4.25;1.02;;;;;;;16.65;36.68;101990.38;16113043;19;129584;-44
2022/12/06 09:02:12;;;;;;;4.35;1.30;;;;;;;16.68;36.69;101995.53;16112240;19;129359;-40
2022/12/06 09:07:34;;;;;;;3.22;0.90;;;;;;;16.68;36.68;101995.53;16124280;19;130392;-40
2022/12/06 09:12:55;;;;;;;5.05;1.17;;;;;;;16.65;36.47;101994.00;16128207;19;129670;-40
2022/12/06 09:18:17;;;;;;;4.78;1.05;;;;;;;16.65;36.93;101998.66;16126926;19;131048;-40
2022/12/06 09:23:39;;;;;;;4.55;0.90;;;;;;;16.65;36.49;102004.19;16127470;19;129209;-41
2022/12/06 09:29:01;;;;;;;2.78;1.02;;;;;;;16.63;36.64;102002.50;16126121;19;129562;-42
2022/12/06 09:34:23;;;;;;;1.85;0.98;;;;;;;16.66;36.37;102008.66;16127692;19;130433;-40
2022/12/06 09:39:48;;;;;;;5.30;1.23;;;;;;;16.69;36.65;102013.81;16128603;19;129320;-39
2022/12/06 09:45:20;;;;;;;2.50;1.00;;;;;;;16.68;36.55;102010.19;16127990;19;130722;-39
2022/12/06 09:50:45;;;;;;;3.03;0.88;;;;;;;16.67;36.51;102008.50;16128680;19;129512;-39
2022/12/06 09:56:16;;;;;;;1.60;0.82;;;;;;;16.65;36.31;102013.34;16124852;19;129455;-39
2022/12/06 10:01:56;;;;;;;2.45;0.93;;;;;;;16.63;36.71;102008.00;16124428;19;129998;-40
2022/12/06 10:07:33;;;;;;;2.47;0.80;;;;;;;16.63;36.41;101998.88;16123374;19;129819;-39
2022/12/06 10:13:01;;;;;;;2.65;0.73;;;;;;;16.60;36.50;101997.41;16126649;19;129449;-41
2022/12/06 10:18:59;;;;;;;1.90;0.77;;;;;;;16.60;36.40;101994.63;16123024;19;129655;-40
2022/12/06 10:24:47;;;;;;;2.03;0.80;;;;;;;16.60;36.29;101996.53;16123333;19;129967;-39
2022/12/06 10:30:13;;;;;;;1.20;0.70;;;;;;;16.58;36.63;101990.34;16121955;19;129425;-39
2022/12/06 10:36:08;;;;;;;1.55;0.70;;;;;;;16.58;36.37;101988.47;16125186;19;129927;-39
2022/12/06 10:41:35;;;;;;;2.20;0.77;;;;;;;16.58;36.26;101974.66;16123930;19;129586;-39
2022/12/06 10:47:24;;;;;;;1.52;0.50;;;;;;;16.58;36.46;101977.41;16122111;19;129824;-41
2022/12/06 10:53:15;;;;;;;1.57;0.77;;;;;;;16.57;36.50;101972.94;16122726;19;129525;-40
2022/12/06 10:58:45;;;;;;;1.77;0.60;;;;;;;16.56;36.65;101982.28;16124909;19;134127;-39
2022/12/06 11:04:15;;;;;;;1.73;0.60;;;;;;;16.57;36.79;101980.34;16121544;19;129425;-40
2022/12/06 11:09:44;;;;;;;0.93;0.50;;;;;;;16.56;36.41;101987.81;16123374;19;131748;-39
2022/12/06 11:15:21;;;;;;;2.78;0.68;;;;;;;16.55;36.62;101991.63;16120967;19;129601;-40
2022/12/06 11:21:16;;;;;;;1.25;0.60;;;;;;;16.56;36.71;101987.81;16121954;19;130821;-41
2022/12/06 11:26:59;;;;;;;2.70;0.80;;;;;;;16.53;36.39;101981.84;16118720;19;129411;-46
2022/12/06 11:32:21;;;;;;;0.73;0.40;;;;;;;16.49;36.64;101970.38;16119265;19;129849;-42
2022/12/06 11:37:44;;;;;;;1.58;0.50;;;;;;;16.49;36.27;101981.41;16120959;19;129253;-39
2022/12/06 11:43:11;;;;;;;1.55;0.70;;;;;;;16.48;36.24;101974.19;16112803;19;130848;-40
2022/12/06 11:48:34;;;;;;;1.13;0.60;;;;;;;16.45;36.40;101964.38;16123233;19;129671;-40
2022/12/06 11:54:02;;;;;;;2.30;0.60;;;;;;;16.47;36.67;101964.19;16119570;19;129633;-41
2022/12/06 11:59:30;;;;;;;2.60;0.70;;;;;;;16.45;36.64;101969.91;16118493;19;129757;-39
2022/12/06 12:04:52;;;;;;;2.20;0.73;;;;;;;16.44;36.36;101959.91;16118923;19;131555;-40
2022/12/06 12:10:32;;;;;;;1.67;0.82;;;;;;;16.45;36.43;101952.50;16118529;19;129611;-42
2022/12/06 12:15:55;;;;;;;1.80;0.50;;;;;;;16.44;36.02;101950.78;16119353;19;129754;-39
2022/12/06 12:21:29;;;;;;;1.27;0.60;;;;;;;16.42;36.10;101948.25;16116902;19;133896;-40
2022/12/06 12:26:51;;;;;;;1.00;0.50;;;;;;;16.41;36.17;101940.16;16116560;19;129407;-40
2022/12/06 12:32:17;;;;;;;1.83;0.80;;;;;;;16.40;36.29;101928.25;16115644;19;129659;-42
2022/12/06 12:37:39;;;;;;;1.58;0.60;;;;;;;16.39;36.08;101931.22;16117758;19;129446;-40
2022/12/06 12:43:16;;;;;;;2.40;0.60;;;;;;;16.40;36.30;101916.34;16129217;19;129752;-42
2022/12/06 12:48:41;;;;;;;1.25;0.50;;;;;;;16.38;36.24;101912.94;16132337;19;129687;-40
2022/12/06 12:54:20;;;;;;;2.20;0.57;;;;;;;16.39;36.15;101920.16;16131636;19;129513;-43
2022/12/06 12:59:44;;;;;;;1.58;0.60;;;;;;;16.37;35.90;101912.09;16130839;19;129583;-43
2022/12/06 13:05:30;;;;;;;0.82;0.40;;;;;;;16.39;35.81;101911.88;16129921;19;129088;-40
2022/12/06 13:10:58;;;;;;;0.95;0.45;;;;;;;16.39;35.81;101911.88;16132273;19;129297;-40
2022/12/06 13:16:31;;;;;;;2.58;0.65;;;;;;;16.40;35.60;101916.34;16127726;19;129351;-40
2022/12/06 13:21:53;;;;;;;1.48;0.50;;;;;;;16.40;36.04;101916.34;16129150;19;129675;-45
2022/12/06 13:27:19;;;;;;;2.20;0.50;;;;;;;16.40;35.85;101910.81;16128333;19;129878;-39
2022/12/06 13:33:03;;;;;;;0.90;0.40;;;;;;;16.41;35.91;101907.00;16130819;19;129327;-40
2022/12/06 13:38:32;;;;;;;1.10;0.40;;;;;;;16.41;35.62;101904.25;16126581;19;129611;-39
2022/12/06 13:43:53;;;;;;;0.63;0.30;;;;;;;16.40;35.92;101899.78;16129717;19;129702;-41
2022/12/06 13:49:24;;;;;;;3.75;0.40;;;;;;;16.41;35.98;101898.72;16125484;19;129735;-40
2022/12/06 13:54:46;;;;;;;0.73;0.40;;;;;;;16.38;35.99;101886.19;16127161;19;129677;-42
2022/12/06 14:00:26;;;;;;;0.77;0.35;;;;;;;16.40;35.87;101895.13;16126540;19;129557;-40
2022/12/06 14:06:02;;;;;;;1.40;0.40;;;;;;;16.40;35.84;101894.25;16128953;19;129534;-41
2022/12/06 14:11:34;;;;;;;2.13;0.43;;;;;;;16.36;36.19;101890.22;16128054;19;129742;-40
2022/12/06 14:17:11;;;;;;;1.70;0.30;;;;;;;16.38;35.89;101885.31;16127117;19;129669;-40
2022/12/06 14:22:53;;;;;;;1.02;0.40;;;;;;;16.36;35.84;101876.41;16126485;19;130643;-40
2022/12/06 14:28:14;;;;;;;2.22;0.50;;;;;;;16.35;36.06;101880.22;16127213;19;129194;-39
2022/12/06 14:33:38;;;;;;;1.10;0.55;;;;;;;16.34;35.77;101878.53;16124707;19;129296;-40
2022/12/06 14:39:17;;;;;;;0.30;0.20;;;;;;;16.35;35.95;101869.19;16126343;19;129534;-40
2022/12/06 14:44:39;;;;;;;0.80;0.40;;;;;;;16.32;36.10;101865.78;16124710;19;129066;-41
2022/12/06 14:50:22;;;;;;;0.90;0.20;;;;;;;16.34;36.26;101861.97;16123708;19;130901;-46
2022/12/06 14:56:00;;;;;;;5.82;0.73;;;;;;;16.37;37.02;101862.38;16124018;19;130155;-43
2022/12/06 15:01:25;;;;;;;3.40;0.63;;;;;;;16.37;37.60;101867.06;16121915;19;130783;-41
2022/12/06 15:06:55;;;;;;;4.88;0.73;;;;;;;16.40;38.09;101858.34;16123309;19;130818;-44
2022/12/06 15:18:15;;;;;;;3.47;0.65;;;;;;;16.42;39.04;101867.28;16121666;19;129605;-43
2022/12/06 15:23:58;;;;;;;2.25;0.60;;;;;;;16.45;39.64;101870.47;16122982;19;134953;-45
2022/12/06 15:29:20;;;;;;;4.25;0.93;;;;;;;16.46;40.42;101866.66;16120506;19;130110;-41
2022/12/06 15:34:43;;;;;;;9.60;0.95;;;;;;;16.51;40.60;101862.44;16116933;19;130935;-44
2022/12/06 15:40:06;;;;;;;2.45;0.73;;;;;;;16.50;39.93;101875.38;16119730;19;129474;-41
2022/12/06 15:45:28;;;;;;;1.75;0.50;;;;;;;16.49;40.21;101859.00;16121976;19;129874;-42
2022/12/06 15:50:50;;;;;;;4.38;0.80;;;;;;;16.46;39.97;101857.53;16123258;19;129078;-43
2022/12/06 15:56:14;;;;;;;7.28;0.80;;;;;;;16.46;41.02;101860.28;16120412;19;128919;-43
2022/12/06 16:01:38;;;;;;;6.18;0.65;;;;;;;16.46;40.89;101866.66;16123500;19;129124;-43
2022/12/06 16:07:05;;;;;;;4.45;1.00;;;;;;;16.46;40.92;101865.81;16123217;19;131667;-45
2022/12/06 16:13:20;;;;;;;4.22;0.90;;;;;;;16.44;40.72;101862.41;16120780;19;129319;-43
2022/12/06 16:18:08;;;;;;;2.55;0.77;;;;;;;16.41;40.68;101858.16;16135199;19;129380;-43
2022/12/06 16:29:31;;;;;;;5.05;0.77;;;;;;;16.36;41.00;101859.84;16134498;19;132149;-41
2022/12/06 16:34:53;;;;;;;2.40;0.98;;;;;;;16.34;40.89;101857.28;16134102;19;129185;-42
2022/12/06 16:40:20;;;;;;;1.77;0.80;;;;;;;16.33;41.24;101861.09;16132798;19;130950;-43
2022/12/06 16:45:44;;;;;;;2.88;1.00;;;;;;;16.31;41.20;101852.16;16130445;19;129802;-43
2022/12/06 16:51:06;;;;;;;5.50;0.93;;;;;;;16.30;41.12;101844.97;16127814;19;130554;-44
2022/12/06 16:56:30;;;;;;;3.85;0.82;;;;;;;16.30;41.34;101843.03;16131300;19;130085;-45
2022/12/06 17:01:54;;;;;;;3.15;0.80;;;;;;;16.32;41.50;101838.16;16130574;19;129754;-42
2022/12/06 17:07:15;;;;;;;2.90;1.10;;;;;;;16.31;41.38;101830.94;16130991;19;130556;-43
2022/12/06 17:12:41;;;;;;;1.90;1.02;;;;;;;16.31;41.92;101830.06;16133495;19;129633;-44
2022/12/06 17:18:03;;;;;;;2.85;1.08;;;;;;;16.31;42.22;101839.22;16130625;19;131369;-45
2022/12/06 17:23:25;;;;;;;3.28;1.00;;;;;;;16.32;42.33;101832.63;16127928;19;129314;-43
2022/12/06 17:28:46;;;;;;;5.05;1.42;;;;;;;16.33;42.66;101839.00;16128589;19;129538;-42
2022/12/06 17:34:10;;;;;;;1.85;1.10;;;;;;;16.59;43.24;101831.84;16128264;19;129616;-43
2022/12/06 17:39:32;;;;;;;1.85;0.95;;;;;;;17.17;42.69;101831.25;16127237;19;129473;-42
2022/12/06 17:44:54;;;;;;;2.42;1.23;;;;;;;17.77;42.63;101843.28;16127715;19;129685;-41
2022/12/06 17:50:16;;;;;;;2.42;1.02;;;;;;;18.40;42.30;101834.28;16126765;19;129605;-44
2022/12/06 17:55:38;;;;;;;2.28;0.90;;;;;;;18.93;42.13;101829.41;16129114;19;131320;-43
2022/12/06 18:00:59;;;;;;;1.80;1.00;;;;;;;19.30;41.50;101829.53;16125899;19;129780;-44
2022/12/06 18:06:24;;;;;;;2.08;1.00;;;;;;;19.48;41.42;101833.38;16122798;19;129622;-43
2022/12/06 18:11:47;;;;;;;1.75;0.98;;;;;;;19.48;41.74;101825.06;16126069;19;129532;-42
2022/12/06 18:17:09;;;;;;;3.45;1.20;;;;;;;19.38;41.88;101825.63;16125144;19;129145;-43
2022/12/06 18:22:31;;;;;;;1.27;1.00;;;;;;;19.24;42.22;101832.38;16124883;19;130508;-45
2022/12/06 18:27:53;;;;;;;2.05;1.23;;;;;;;19.06;42.77;101829.31;16123669;19;130801;-43
2022/12/06 18:33:15;;;;;;;3.85;1.50;;;;;;;18.87;42.58;101833.06;16123778;19;130717;-46
2022/12/06 18:38:42;;;;;;;1.38;1.13;;;;;;;18.70;43.22;101830.88;16123202;19;129781;-42
2022/12/06 18:44:04;;;;;;;8.00;1.17;;;;;;;18.59;44.11;101828.81;16122278;19;130121;-45
2022/12/06 18:49:26;;;;;;;5.18;1.23;;;;;;;18.58;44.22;101824.38;16119155;19;130669;-49
2022/12/06 18:54:48;;;;;;;7.55;1.48;;;;;;;18.59;44.91;101817.72;16117961;19;130575;-53
2022/12/06 19:00:10;;;;;;;5.25;1.13;;;;;;;18.68;45.13;101824.72;16123929;19;129495;-49
2022/12/06 19:05:32;;;;;;;4.13;1.42;;;;;;;18.98;45.43;101826.78;16122975;19;129543;-53
2022/12/06 19:11:17;;;;;;;3.30;1.20;;;;;;;19.33;45.17;101822.66;16123478;19;129885;-52
2022/12/06 19:16:49;;;;;;;9.43;1.23;;;;;;;19.66;45.73;101816.75;16122148;19;129677;-53
2022/12/06 19:22:11;;;;;;;4.38;1.20;;;;;;;19.95;45.10;101830.91;16119362;19;129350;-42
2022/12/06 19:27:33;;;;;;;2.70;1.00;;;;;;;20.21;44.83;101823.31;16122513;19;131616;-45
2022/12/06 19:32:55;;;;;;;4.65;1.00;;;;;;;20.45;44.75;101817.84;16123856;19;129461;-42
2022/12/06 19:38:17;;;;;;;5.47;1.15;;;;;;;20.64;45.19;101820.56;16121128;19;129741;-44
2022/12/06 19:49:21;;;;;;;7.03;1.77;;;;;;;20.59;44.40;101819.34;16117763;19;129664;-44
2022/12/06 19:54:43;;;;;;;6.30;1.55;;;;;;;20.49;44.47;101805.19;16119921;19;129521;-44
2022/12/06 20:00:06;;;;;;;5.80;1.27;;;;;;;20.35;44.86;101810.13;16115398;19;129511;-44
2022/12/06 20:05:28;;;;;;;4.85;1.35;;;;;;;20.16;45.06;101814.88;16117586;19;129501;-44
2022/12/06 20:10:49;;;;;;;4.75;1.55;;;;;;;19.94;44.51;101812.53;16116640;19;130048;-45
2022/12/06 20:16:11;;;;;;;5.32;1.42;;;;;;;19.78;44.64;101813.19;16118078;19;129429;-45
2022/12/06 20:21:33;;;;;;;6.95;1.58;;;;;;;19.59;45.32;101807.63;16119255;19;134221;-46
2022/12/06 20:26:56;;;;;;;7.38;1.73;;;;;;;19.48;45.70;101806.50;16119731;19;130162;-47
2022/12/06 20:32:18;;;;;;;6.00;1.20;;;;;;;19.49;46.03;101801.78;16117966;19;132921;-46
2022/12/06 20:37:39;;;;;;;8.18;1.60;;;;;;;19.52;46.40;101807.72;16116376;19;129558;-46
2022/12/06 20:43:01;;;;;;;2.58;1.02;;;;;;;19.56;46.39;101805.34;16111690;19;129892;-46
2022/12/06 20:48:23;;;;;;;2.22;1.20;;;;;;;19.61;46.52;101812.97;16112195;19;129902;-44
2022/12/06 20:53:49;;;;;;;3.65;1.13;;;;;;;19.61;46.46;101810.19;16109792;19;129599;-45
2022/12/06 20:59:11;;;;;;;5.05;1.30;;;;;;;19.63;46.65;101814.44;16112680;19;129856;-43
2022/12/06 21:04:32;;;;;;;4.00;1.25;;;;;;;19.66;46.55;101805.66;16129323;19;129537;-46
2022/12/06 21:09:54;;;;;;;2.63;1.02;;;;;;;19.65;46.69;101803.94;16130455;19;129769;-43
2022/12/06 21:15:16;;;;;;;7.65;1.35;;;;;;;19.60;46.60;101795.47;16124613;19;130067;-46
2022/12/06 21:20:41;;;;;;;5.30;1.30;;;;;;;19.52;47.15;101793.84;16126893;19;129441;-45
2022/12/06 21:26:05;;;;;;;7.15;1.48;;;;;;;19.44;47.06;101799.72;16128542;19;131738;-44
2022/12/06 21:31:32;;;;;;;5.55;1.73;;;;;;;19.36;46.98;101800.03;16124287;19;129519;-42
2022/12/06 21:36:54;;;;;;;2.45;1.20;;;;;;;19.28;47.19;101800.31;16126696;19;130894;-43
2022/12/06 21:42:19;;;;;;;6.72;1.42;;;;;;;19.22;47.32;101807.63;16126610;19;129653;-44
2022/12/06 21:47:41;;;;;;;3.42;1.00;;;;;;;19.15;47.24;101799.31;16125606;19;129509;-43
2022/12/06 21:53:03;;;;;;;4.72;1.73;;;;;;;19.08;47.33;101799.38;16124171;19;131472;-42
2022/12/06 21:58:25;;;;;;;15.10;1.55;;;;;;;19.01;47.38;101804.16;16123829;19;129752;-45
2022/12/06 22:03:48;;;;;;;12.70;1.70;;;;;;;18.94;47.34;101805.28;16125674;19;129434;-42
2022/12/06 22:09:10;;;;;;;10.15;1.63;;;;;;;18.83;47.33;101812.44;16125746;19;129615;-44
2022/12/06 22:14:32;;;;;;;10.10;1.30;;;;;;;18.70;47.40;101805.94;16125598;19;129957;-43
2022/12/06 22:19:54;;;;;;;7.85;1.63;;;;;;;18.62;47.18;101811.72;16127116;19;129914;-43
2022/12/06 22:25:15;;;;;;;5.70;1.20;;;;;;;18.53;47.44;101807.53;16127626;19;129684;-46
2022/12/06 22:30:40;;;;;;;6.45;1.23;;;;;;;18.46;47.38;101807.59;16123692;19;130126;-43
2022/12/06 22:36:02;;;;;;;3.33;1.10;;;;;;;18.39;47.43;101812.31;16123156;19;129744;-42
2022/12/06 22:41:25;;;;;;;5.30;0.90;;;;;;;18.32;47.58;101812.34;16121568;19;129338;-44
2022/12/06 22:46:47;;;;;;;7.85;1.00;;;;;;;18.25;47.87;101811.53;16121339;19;132003;-44
2022/12/06 22:52:08;;;;;;;6.07;1.10;;;;;;;18.20;48.13;101811.34;16121316;19;131390;-42
2022/12/06 22:57:30;;;;;;;4.93;1.20;;;;;;;18.12;47.66;101807.75;16117206;19;129651;-44
2022/12/06 23:02:52;;;;;;;2.63;1.17;;;;;;;18.07;48.07;101818.66;16107676;19;129481;-44
2022/12/06 23:08:13;;;;;;;3.45;1.08;;;;;;;18.04;47.73;101821.00;16110649;19;130381;-46
2022/12/06 23:13:35;;;;;;;3.63;0.70;;;;;;;17.97;47.86;101810.00;16116147;19;129473;-45
2022/12/06 23:19:00;;;;;;;2.13;0.90;;;;;;;17.93;48.11;101808.72;16124666;19;129718;-46
2022/12/06 23:24:21;;;;;;;3.22;1.02;;;;;;;17.89;48.19;101811.09;16119077;19;130140;-44
2022/12/06 23:29:43;;;;;;;3.40;1.02;;;;;;;17.83;47.83;101804.50;16120311;19;130200;-47
2022/12/06 23:35:05;;;;;;;1.67;0.88;;;;;;;17.81;47.85;101795.56;16117887;19;129308;-43
2022/12/06 23:40:27;;;;;;;3.72;0.80;;;;;;;17.77;48.27;101793.47;16118173;19;129085;-42
2022/12/06 23:45:54;;;;;;;1.60;0.60;;;;;;;17.75;47.86;101801.97;16119622;19;129701;-42
2022/12/06 23:51:26;;;;;;;3.65;0.80;;;;;;;17.70;48.26;101790.72;16114639;19;130615;-42
2022/12/06 23:56:47;;;;;;;1.80;0.95;;;;;;;17.68;48.27;101801.16;16117276;19;129994;-43
